Time;durP1;ratioP1;P1;durP2;ratioP2;P2;SDS_P1;SDS_P2;PMS_P1;PMS_P2;Temp;Humidity;BMP_temperature;BMP_pressure;BME280_temperature;BME280_humidity;BME280_pressure;Samples;Min_cycle;Max_cycle;Signal;HPM_P1;HPM_P2
2021/05/30 09:22:43;;;;;;;23.00;16.90;;;16.80;76.40;;;;;;5086729;28;20748;-67
2021/05/30 09:25:18;;;;;;;19.87;14.80;;;16.80;85.90;;;;;;5060705;28;20107;-64
2021/05/30 09:28:00;;;;;;;20.40;15.67;;;16.90;84.90;;;;;;5064927;28;20064;-68
2021/05/30 09:30:27;;;;;;;;;;;17.00;81.60;;;;;;5062761;28;20049;-70
2021/05/30 09:33:03;;;;;;;19.63;16.23;;;17.10;75.30;;;;;;5040675;28;19920;-66
2021/05/30 09:35:51;;;;;;;17.17;15.37;;;17.30;78.90;;;;;;5059773;28;20045;-67
2021/05/30 09:38:20;;;;;;;21.53;15.93;;;17.30;74.20;;;;;;5063674;28;20056;-68
2021/05/30 09:40:52;;;;;;;20.43;15.60;;;17.40;74.00;;;;;;5063603;28;20143;-68
2021/05/30 09:43:24;;;;;;;16.43;14.30;;;17.30;72.90;;;;;;5064707;28;20056;-68
2021/05/30 09:45:58;;;;;;;23.90;14.20;;;17.50;72.70;;;;;;5064245;28;20045;-68
2021/05/30 09:48:24;;;;;;;22.57;15.03;;;17.60;71.50;;;;;;5063968;28;20079;-68
2021/05/30 09:51:08;;;;;;;23.73;15.37;;;17.60;70.00;;;;;;5064477;28;20072;-67
2021/05/30 09:53:43;;;;;;;21.60;14.83;;;17.60;70.00;;;;;;5064621;28;20133;-68
2021/05/30 09:56:34;;;;;;;23.47;15.33;;;17.50;69.40;;;;;;5063764;28;20041;-68
2021/05/30 09:59:03;;;;;;;21.40;13.95;;;17.40;68.50;;;;;;5064000;28;20554;-68
2021/05/30 10:01:57;;;;;;;23.70;14.60;;;17.40;69.70;;;;;;5063884;28;20079;-68
2021/05/30 10:04:25;;;;;;;19.13;13.93;;;17.50;69.30;;;;;;5063398;28;20083;-67
2021/05/30 10:06:51;;;;;;;18.53;13.93;;;17.60;69.10;;;;;;5064474;28;20078;-68
2021/05/30 10:09:17;;;;;;;21.17;14.30;;;17.60;69.30;;;;;;5062095;28;20102;-67
2021/05/30 10:11:43;;;;;;;22.47;14.50;;;17.70;69.20;;;;;;5063430;28;20044;-66
2021/05/30 10:14:09;;;;;;;17.57;13.13;;;17.70;68.60;;;;;;5063500;28;20045;-66
2021/05/30 10:16:36;;;;;;;19.33;12.57;;;17.70;68.80;;;;;;5062999;28;20040;-67
2021/05/30 10:19:24;;;;;;;17.57;12.90;;;17.70;68.90;;;;;;5063282;28;20045;-68
2021/05/30 10:21:52;;;;;;;16.10;11.77;;;17.70;67.30;;;;;;5062679;28;20135;-67
2021/05/30 10:24:18;;;;;;;16.03;11.73;;;17.70;67.90;;;;;;5062692;28;20136;-67
2021/05/30 10:26:45;;;;;;;16.03;11.00;;;17.70;68.10;;;;;;5063808;28;20495;-68
2021/05/30 10:29:18;;;;;;;17.80;12.13;;;17.80;67.80;;;;;;5062913;28;20401;-67
2021/05/30 10:31:47;;;;;;;16.37;11.77;;;17.90;67.20;;;;;;5061261;28;20511;-67
2021/05/30 10:34:14;;;;;;;18.50;12.13;;;17.90;66.30;;;;;;5047252;28;20421;-67
2021/05/30 10:36:42;;;;;;;19.93;11.97;;;17.90;67.30;;;;;;5050054;28;20047;-67
2021/05/30 10:39:29;;;;;;;16.50;11.53;;;18.00;67.70;;;;;;5031549;28;20056;-67
2021/05/30 10:42:26;;;;;;;15.77;10.73;;;18.20;66.40;;;;;;5047598;28;20053;-66
2021/05/30 10:44:56;;;;;;;16.60;11.33;;;18.40;67.00;;;;;;5048526;28;20072;-66
2021/05/30 10:47:40;;;;;;;17.30;11.53;;;18.60;66.90;;;;;;5049878;28;20065;-66
2021/05/30 10:50:13;;;;;;;18.33;12.23;;;18.50;65.40;;;;;;5049670;28;20041;-66
2021/05/30 10:52:42;;;;;;;17.33;11.73;;;18.60;65.80;;;;;;5047020;28;20269;-67
2021/05/30 10:55:26;;;;;;;15.27;9.73;;;18.60;65.50;;;;;;5049368;28;20040;-68
2021/05/30 10:57:52;;;;;;;17.07;10.57;;;18.50;66.10;;;;;;5049511;28;20047;-66
2021/05/30 11:00:20;;;;;;;16.77;10.77;;;18.60;66.40;;;;;;5048904;28;20049;-65
2021/05/30 11:03:07;;;;;;;19.87;10.73;;;18.60;66.10;;;;;;5049291;28;20561;-66
2021/05/30 11:05:51;;;;;;;14.27;10.17;;;18.60;66.00;;;;;;5046296;28;20059;-66
2021/05/30 11:08:31;;;;;;;16.63;10.07;;;18.70;65.30;;;;;;5046664;28;20212;-66
2021/05/30 11:11:17;;;;;;;16.43;10.30;;;18.80;65.10;;;;;;5047736;28;20052;-67
2021/05/30 11:13:55;;;;;;;14.60;9.77;;;18.90;65.00;;;;;;5047469;28;20357;-66
2021/05/30 11:16:25;;;;;;;15.07;9.70;;;19.00;64.70;;;;;;5046933;28;20098;-66
2021/05/30 11:18:59;;;;;;;14.50;8.40;;;19.10;64.30;;;;;;5049103;28;20045;-66
2021/05/30 11:21:42;;;;;;;11.67;7.93;;;19.00;64.10;;;;;;5047925;28;20143;-65
2021/05/30 11:24:09;;;;;;;15.60;9.10;;;19.10;64.70;;;;;;5049075;28;20150;-65
2021/05/30 11:26:36;;;;;;;15.23;9.30;;;19.10;64.60;;;;;;5045424;28;20059;-66
2021/05/30 11:29:04;;;;;;;15.13;9.30;;;19.20;64.30;;;;;;5049243;28;20117;-67
2021/05/30 11:31:30;;;;;;;12.17;8.40;;;19.30;64.00;;;;;;5048597;28;20080;-67
2021/05/30 11:34:03;;;;;;;14.73;8.10;;;19.30;64.00;;;;;;5050057;28;20132;-68
2021/05/30 11:36:36;;;;;;;14.67;8.20;;;19.30;64.10;;;;;;5047831;28;20048;-68
2021/05/30 11:39:11;;;;;;;14.03;8.10;;;19.30;62.90;;;;;;5048697;28;20049;-68
2021/05/30 11:41:49;;;;;;;13.03;8.13;;;19.40;63.30;;;;;;5045009;28;20512;-68
2021/05/30 11:44:20;;;;;;;15.33;8.63;;;19.50;62.30;;;;;;5045056;28;20064;-68
2021/05/30 11:46:46;;;;;;;13.60;7.05;;;19.50;61.70;;;;;;5047885;28;20041;-67
2021/05/30 11:49:11;;;;;;;20.70;7.80;;;19.50;62.00;;;;;;5047215;28;20429;-67
2021/05/30 11:51:46;;;;;;;13.10;8.17;;;19.50;62.10;;;;;;5047551;28;20364;-67
2021/05/30 11:54:12;;;;;;;12.10;6.70;;;19.60;61.60;;;;;;5048310;28;20430;-67
2021/05/30 11:56:42;;;;;;;10.77;6.97;;;19.60;62.10;;;;;;5047579;28;20106;-67
2021/05/30 11:59:09;;;;;;;14.13;7.03;;;19.70;62.80;;;;;;5047743;28;20053;-66
2021/05/30 12:01:48;;;;;;;9.33;6.60;;;19.70;61.50;;;;;;5047328;28;20053;-66
2021/05/30 12:04:41;;;;;;;11.57;6.63;;;19.80;61.40;;;;;;5045610;28;20049;-67
2021/05/30 12:07:14;;;;;;;14.10;7.33;;;19.80;61.50;;;;;;5048293;28;20060;-69
2021/05/30 12:09:47;;;;;;;15.57;7.70;;;19.90;61.50;;;;;;5047550;28;20045;-69
2021/05/30 12:12:27;;;;;;;14.20;6.93;;;20.00;61.10;;;;;;5047616;28;20127;-69
2021/05/30 12:14:52;;;;;;;12.20;7.47;;;20.00;60.30;;;;;;5048538;28;20075;-69
2021/05/30 12:17:18;;;;;;;12.80;6.90;;;20.00;60.80;;;;;;5046732;28;20044;-69
2021/05/30 12:19:45;;;;;;;10.90;6.80;;;20.10;60.80;;;;;;5049224;28;20064;-68
2021/05/30 12:22:26;;;;;;;10.13;6.77;;;20.10;60.40;;;;;;5047924;28;20456;-68
2021/05/30 12:24:52;;;;;;;11.40;6.88;;;20.20;60.60;;;;;;5047791;28;20394;-68
2021/05/30 12:27:19;;;;;;;12.03;6.87;;;20.20;60.80;;;;;;5047267;28;20049;-67
2021/05/30 12:29:48;;;;;;;9.37;6.43;;;20.30;59.80;;;;;;5046740;28;20075;-68
2021/05/30 12:32:15;;;;;;;12.70;7.50;;;20.20;59.50;;;;;;5047427;28;20076;-68
2021/05/30 12:34:41;;;;;;;10.93;6.57;;;20.30;59.30;;;;;;5048323;28;20049;-67
2021/05/30 12:37:07;;;;;;;11.37;7.23;;;20.20;59.60;;;;;;5046933;28;20045;-67
2021/05/30 12:39:33;;;;;;;10.80;7.73;;;20.30;60.00;;;;;;5046930;28;20557;-67
2021/05/30 12:42:00;;;;;;;11.50;7.93;;;20.20;60.10;;;;;;5047121;28;20055;-68
2021/05/30 12:44:42;;;;;;;11.67;7.60;;;20.20;60.10;;;;;;5047115;28;20115;-68
2021/05/30 12:47:19;;;;;;;13.97;7.97;;;20.20;60.10;;;;;;5047773;28;20045;-68
2021/05/30 12:50:03;;;;;;;13.97;7.83;;;20.20;59.80;;;;;;5047941;28;20112;-69
2021/05/30 12:52:44;;;;;;;11.23;7.43;;;20.20;60.40;;;;;;5046153;28;20073;-69
2021/05/30 12:55:10;;;;;;;11.70;7.80;;;20.20;60.70;;;;;;5047192;28;20045;-68
2021/05/30 12:57:47;;;;;;;13.60;9.17;;;20.20;60.80;;;;;;5046402;28;20056;-71
2021/05/30 13:00:25;;;;;;;12.23;8.00;;;20.20;61.30;;;;;;5046774;28;20044;-68
2021/05/30 13:03:05;;;;;;;14.63;8.33;;;20.30;61.50;;;;;;5046602;28;20052;-68
2021/05/30 13:05:44;;;;;;;15.20;8.13;;;20.30;60.70;;;;;;5045639;28;20099;-68
2021/05/30 13:08:29;;;;;;;13.03;8.70;;;20.30;61.70;;;;;;5047243;28;20041;-68
2021/05/30 13:10:59;;;;;;;13.47;8.57;;;20.30;61.90;;;;;;5046962;28;20056;-69
2021/05/30 13:13:28;;;;;;;12.13;8.40;;;20.30;61.50;;;;;;5046443;28;20525;-69
2021/05/30 13:15:54;;;;;;;13.73;8.00;;;20.20;60.90;;;;;;5046990;28;20558;-68
2021/05/30 13:18:20;;;;;;;11.03;8.50;;;20.20;60.90;;;;;;5046950;28;20494;-68
2021/05/30 13:20:51;;;;;;;12.03;7.27;;;20.10;61.60;;;;;;5045981;28;20053;-69
2021/05/30 13:23:22;;;;;;;16.20;7.33;;;19.90;61.00;;;;;;5046167;28;20391;-69
2021/05/30 13:26:02;;;;;;;14.18;7.53;;;19.90;61.50;;;;;;5045443;28;20147;-68
2021/05/30 13:28:41;;;;;;;12.10;7.70;;;19.80;61.70;;;;;;5046960;28;20053;-68
2021/05/30 13:31:13;;;;;;;14.07;8.03;;;19.70;61.90;;;;;;5047083;28;20493;-68
2021/05/30 13:33:43;;;;;;;11.17;6.90;;;19.80;62.10;;;;;;5045544;28;20489;-68
2021/05/30 13:36:10;;;;;;;11.57;6.97;;;19.80;61.70;;;;;;5046533;28;20068;-67
2021/05/30 13:38:36;;;;;;;13.13;7.57;;;19.80;63.20;;;;;;5047048;28;20073;-66
2021/05/30 13:41:13;;;;;;;13.57;6.83;;;19.80;62.30;;;;;;5046094;28;20049;-67
2021/05/30 13:43:38;;;;;;;13.50;8.03;;;19.70;62.20;;;;;;5046597;28;20040;-69
2021/05/30 13:46:04;;;;;;;11.50;7.20;;;19.60;62.10;;;;;;5046610;28;20139;-67
2021/05/30 13:48:30;;;;;;;15.93;7.97;;;19.50;62.30;;;;;;5046015;28;20062;-67
2021/05/30 13:51:09;;;;;;;12.77;7.90;;;19.50;62.10;;;;;;5048485;28;20134;-68
2021/05/30 13:53:35;;;;;;;12.90;7.80;;;19.40;62.50;;;;;;5050595;28;20049;-68
2021/05/30 13:56:01;;;;;;;13.77;8.30;;;19.30;62.40;;;;;;5049405;28;20183;-68
2021/05/30 13:58:27;;;;;;;10.60;7.90;;;19.20;62.30;;;;;;5050519;28;20485;-69
2021/05/30 14:00:53;;;;;;;15.37;8.13;;;19.10;63.60;;;;;;5049500;28;20045;-68
2021/05/30 14:03:18;;;;;;;10.67;7.33;;;19.10;62.80;;;;;;5050670;28;20045;-69
2021/05/30 14:05:45;;;;;;;13.17;7.83;;;19.00;63.00;;;;;;5050672;28;20048;-70
2021/05/30 14:08:11;;;;;;;12.67;7.33;;;19.10;63.50;;;;;;5051902;28;20140;-69
2021/05/30 14:10:36;;;;;;;12.63;7.67;;;19.10;63.40;;;;;;5054407;28;20465;-67
2021/05/30 14:13:02;;;;;;;12.97;8.40;;;18.90;62.90;;;;;;5053674;28;20136;-69
2021/05/30 14:15:28;;;;;;;13.17;7.90;;;18.90;62.80;;;;;;5053138;28;20190;-68
2021/05/30 14:17:54;;;;;;;13.47;8.73;;;18.80;62.90;;;;;;5054317;28;20446;-69
2021/05/30 14:20:19;;;;;;;14.47;8.53;;;18.70;62.70;;;;;;5053511;28;20045;-68
2021/05/30 14:22:45;;;;;;;13.60;8.47;;;18.60;63.10;;;;;;5053714;28;20056;-68
2021/05/30 14:25:11;;;;;;;12.60;8.20;;;18.60;63.30;;;;;;5054065;28;20053;-68
2021/05/30 14:27:38;;;;;;;15.10;7.83;;;18.70;63.20;;;;;;5053693;28;20132;-68
2021/05/30 14:30:09;;;;;;;11.97;8.80;;;18.70;62.40;;;;;;5052949;28;20451;-68
2021/05/30 14:32:36;;;;;;;17.50;10.97;;;18.70;61.70;;;;;;5053583;28;20048;-67
2021/05/30 14:35:04;;;;;;;14.83;9.93;;;18.60;62.50;;;;;;5053408;28;20045;-69
2021/05/30 14:37:30;;;;;;;14.47;10.37;;;18.50;62.90;;;;;;5052871;28;20128;-67
2021/05/30 14:39:56;;;;;;;16.53;9.60;;;18.40;63.80;;;;;;5053858;28;20053;-69
2021/05/30 14:42:23;;;;;;;17.73;10.53;;;18.40;63.40;;;;;;5053228;28;20132;-69
2021/05/30 14:44:48;;;;;;;15.73;10.17;;;18.30;63.30;;;;;;5052846;28;20129;-69
2021/05/30 14:47:14;;;;;;;13.10;9.90;;;18.10;63.70;;;;;;5053531;28;20080;-69
2021/05/30 14:49:39;;;;;;;17.53;10.50;;;18.10;64.40;;;;;;5053485;28;20132;-69
2021/05/30 14:52:06;;;;;;;12.53;9.57;;;18.10;64.70;;;;;;5052848;28;20052;-69
2021/05/30 14:54:32;;;;;;;13.53;9.80;;;18.20;64.40;;;;;;5053048;28;20110;-69
2021/05/30 14:56:59;;;;;;;13.50;10.97;;;18.20;64.40;;;;;;5052752;28;20143;-70
2021/05/30 14:59:24;;;;;;;16.50;9.70;;;18.10;64.20;;;;;;5052441;28;20064;-69
2021/05/30 15:01:50;;;;;;;14.13;9.77;;;18.10;64.10;;;;;;5053235;28;20083;-69
2021/05/30 15:04:16;;;;;;;13.37;9.73;;;18.00;64.10;;;;;;5052343;28;20049;-69
2021/05/30 15:06:41;;;;;;;15.30;9.03;;;18.00;64.10;;;;;;5053097;28;20135;-69
2021/05/30 15:09:07;;;;;;;17.13;8.93;;;17.90;63.70;;;;;;5053083;28;20047;-69
2021/05/30 15:11:33;;;;;;;12.97;9.37;;;17.80;63.80;;;;;;5052430;28;20052;-69
2021/05/30 15:13:59;;;;;;;13.37;9.73;;;17.70;64.00;;;;;;5034863;28;20045;-69
2021/05/30 15:16:25;;;;;;;13.73;9.30;;;17.70;63.90;;;;;;5053225;28;20063;-69
2021/05/30 15:18:51;;;;;;;12.10;9.00;;;17.60;63.90;;;;;;5052698;28;20131;-69
2021/05/30 15:21:17;;;;;;;11.87;8.90;;;17.70;64.20;;;;;;5052870;28;20083;-71
2021/05/30 15:23:42;;;;;;;13.60;9.63;;;17.70;64.30;;;;;;5053685;28;20064;-70
2021/05/30 15:26:08;;;;;;;11.63;10.37;;;17.70;64.10;;;;;;5052683;28;20053;-70
2021/05/30 15:28:34;;;;;;;17.57;9.33;;;17.60;64.30;;;;;;5053243;28;20551;-71
2021/05/30 15:31:01;;;;;;;15.57;10.17;;;17.60;64.20;;;;;;5053602;28;20128;-69
2021/05/30 15:33:28;;;;;;;14.20;10.30;;;17.60;64.60;;;;;;5052487;28;20126;-70
2021/05/30 15:36:05;;;;;;;15.17;10.37;;;17.60;64.60;;;;;;5053305;28;20370;-70
2021/05/30 15:38:32;;;;;;;16.17;10.43;;;17.60;64.40;;;;;;5052571;28;20140;-69
2021/05/30 15:40:58;;;;;;;11.97;9.63;;;17.60;64.80;;;;;;5052057;28;20072;-70
2021/05/30 15:43:24;;;;;;;12.87;9.97;;;17.60;64.60;;;;;;5052756;28;20060;-69
2021/05/30 15:45:50;;;;;;;15.90;8.80;;;17.60;64.80;;;;;;5053121;28;20075;-70
2021/05/30 15:48:16;;;;;;;15.80;10.07;;;17.50;64.50;;;;;;5052113;28;20180;-69
2021/05/30 15:50:43;;;;;;;14.23;10.00;;;17.50;64.60;;;;;;5052792;28;20056;-70
2021/05/30 15:53:09;;;;;;;16.77;9.70;;;17.50;64.90;;;;;;5052746;28;20041;-70
2021/05/30 15:55:34;;;;;;;15.47;9.43;;;17.50;64.90;;;;;;5051596;28;20071;-70
2021/05/30 15:58:00;;;;;;;13.73;9.60;;;17.50;64.90;;;;;;5053045;28;20045;-69
2021/05/30 16:00:26;;;;;;;14.40;8.40;;;17.40;65.00;;;;;;5051770;28;20546;-69
2021/05/30 16:02:51;;;;;;;13.63;8.37;;;17.40;64.80;;;;;;5052647;28;20099;-70
2021/05/30 16:05:17;;;;;;;11.23;8.87;;;17.30;64.50;;;;;;5052570;28;20052;-69
2021/05/30 16:07:43;;;;;;;12.40;8.83;;;17.20;64.70;;;;;;5051852;28;20057;-69
2021/05/30 16:10:09;;;;;;;12.70;8.87;;;17.20;65.00;;;;;;5052469;28;20405;-69
2021/05/30 16:12:35;;;;;;;12.30;8.77;;;17.20;65.30;;;;;;5052472;28;20076;-69
2021/05/30 16:15:02;;;;;;;11.97;7.43;;;17.20;65.50;;;;;;5052020;28;20147;-70
2021/05/30 16:17:28;;;;;;;12.70;8.13;;;17.20;65.40;;;;;;5052260;28;20041;-69
2021/05/30 16:19:54;;;;;;;13.77;7.17;;;17.10;65.00;;;;;;5052937;28;20401;-70
2021/05/30 16:22:20;;;;;;;10.37;8.30;;;17.20;65.10;;;;;;5050902;28;20079;-69
2021/05/30 16:24:45;;;;;;;14.30;7.93;;;17.20;65.30;;;;;;5052346;28;20130;-70
2021/05/30 16:27:14;;;;;;;13.87;8.30;;;17.20;65.70;;;;;;5052405;28;20045;-69
2021/05/30 16:29:39;;;;;;;13.73;7.77;;;17.20;65.50;;;;;;5051393;28;20049;-69
2021/05/30 16:32:05;;;;;;;13.63;7.27;;;17.10;64.70;;;;;;5051766;28;20056;-69
2021/05/30 16:34:31;;;;;;;13.20;7.40;;;17.10;64.70;;;;;;5051860;28;20111;-69
2021/05/30 16:36:57;;;;;;;11.77;7.17;;;17.00;64.60;;;;;;5051494;28;20049;-69
2021/05/30 16:39:23;;;;;;;13.10;6.97;;;17.00;64.80;;;;;;5051812;28;20155;-69
2021/05/30 16:41:52;;;;;;;9.33;6.67;;;17.00;64.70;;;;;;5052014;28;20119;-69
2021/05/30 16:44:18;;;;;;;10.67;7.20;;;17.00;64.40;;;;;;5050963;28;20056;-69
2021/05/30 16:46:44;;;;;;;12.10;7.70;;;16.90;64.60;;;;;;5051881;28;20068;-69
2021/05/30 16:49:11;;;;;;;11.67;7.17;;;16.90;65.00;;;;;;5051870;28;20049;-69
2021/05/30 16:51:37;;;;;;;13.10;8.40;;;16.90;64.90;;;;;;5050539;28;20409;-67
2021/05/30 16:54:03;;;;;;;13.97;7.57;;;16.90;64.60;;;;;;5051646;28;20071;-67
2021/05/30 16:56:30;;;;;;;12.90;8.40;;;16.90;64.70;;;;;;5051579;28;20052;-69
2021/05/30 16:58:56;;;;;;;17.90;8.83;;;16.80;65.00;;;;;;5051162;28;20041;-69
2021/05/30 17:01:21;;;;;;;12.67;7.30;;;16.70;65.70;;;;;;5051256;28;20052;-69
2021/05/30 17:03:47;;;;;;;15.93;7.63;;;16.70;65.70;;;;;;5050909;28;20056;-69
2021/05/30 17:06:13;;;;;;;11.73;6.97;;;16.60;65.60;;;;;;5051327;28;20545;-69
2021/05/30 17:08:38;;;;;;;11.07;6.33;;;16.60;65.90;;;;;;5051863;28;20586;-69
2021/05/30 17:11:04;;;;;;;11.53;6.20;;;16.50;66.00;;;;;;5050971;28;20041;-69
2021/05/30 17:13:30;;;;;;;14.27;7.10;;;16.50;66.00;;;;;;5051347;28;20080;-69
2021/05/30 17:15:58;;;;;;;12.53;6.80;;;16.40;66.00;;;;;;5051512;28;20045;-69
2021/05/30 17:18:29;;;;;;;10.00;7.20;;;16.40;66.70;;;;;;5032386;28;20068;-68
2021/05/30 17:20:55;;;;;;;;;;;16.40;66.90;;;;;;5051391;28;20053;-68
2021/05/30 17:23:20;;;;;;;9.50;6.13;;;16.30;67.00;;;;;;5051154;28;19928;-69
2021/05/30 17:25:47;;;;;;;11.43;6.73;;;16.20;67.10;;;;;;5050601;28;20135;-69
2021/05/30 17:28:13;;;;;;;11.30;6.40;;;16.20;67.10;;;;;;5051173;28;20044;-69
2021/05/30 17:30:39;;;;;;;13.10;7.37;;;16.10;67.30;;;;;;5051232;28;20149;-69
2021/05/30 17:33:05;;;;;;;11.23;6.20;;;16.10;67.60;;;;;;5050500;28;20470;-69
2021/05/30 17:35:31;;;;;;;12.87;7.20;;;16.10;67.80;;;;;;5050729;28;20102;-69
2021/05/30 17:37:59;;;;;;;13.27;7.37;;;16.10;67.90;;;;;;5051490;28;20049;-69
2021/05/30 17:40:24;;;;;;;15.57;8.20;;;16.10;68.00;;;;;;5050351;28;20053;-69
2021/05/30 17:42:50;;;;;;;17.90;8.87;;;16.00;68.00;;;;;;5053104;28;20045;-68
2021/05/30 17:45:16;;;;;;;14.80;9.10;;;16.00;68.50;;;;;;5055518;28;20442;-70
2021/05/30 17:47:42;;;;;;;13.83;8.70;;;15.90;68.90;;;;;;5054792;28;20409;-69
2021/05/30 17:50:08;;;;;;;14.13;8.63;;;15.90;69.50;;;;;;5055260;28;20535;-70
2021/05/30 17:52:34;;;;;;;12.80;8.70;;;15.90;70.00;;;;;;5055163;28;20057;-70
2021/05/30 17:55:00;;;;;;;14.60;9.33;;;15.80;71.00;;;;;;5054720;28;20045;-69
2021/05/30 17:57:25;;;;;;;15.27;9.43;;;15.80;70.30;;;;;;5055213;28;20048;-70
2021/05/30 17:59:51;;;;;;;15.93;9.37;;;15.70;70.60;;;;;;5055313;28;20383;-70
2021/05/30 18:02:17;;;;;;;14.40;9.47;;;15.60;70.70;;;;;;5054152;28;20148;-70
2021/05/30 18:04:43;;;;;;;13.57;9.00;;;15.60;71.20;;;;;;5054959;28;20075;-69
2021/05/30 18:07:10;;;;;;;14.87;8.80;;;15.60;71.10;;;;;;5054622;28;20072;-71
2021/05/30 18:09:38;;;;;;;13.00;8.30;;;15.50;71.40;;;;;;5054865;28;20144;-70
2021/05/30 18:12:05;;;;;;;15.37;8.50;;;15.50;71.70;;;;;;5055113;28;20048;-69
2021/05/30 18:14:32;;;;;;;15.83;8.20;;;15.40;71.60;;;;;;5054057;28;20093;-69
2021/05/30 18:16:58;;;;;;;71.67;13.30;;;15.40;71.90;;;;;;5055030;28;20596;-69
2021/05/30 18:19:24;;;;;;;11.40;6.60;;;15.40;72.10;;;;;;5054618;28;20132;-67
2021/05/30 18:21:51;;;;;;;16.70;11.43;;;15.30;72.00;;;;;;5053373;28;20056;-67
2021/05/30 18:24:17;;;;;;;10.27;6.33;;;15.30;72.10;;;;;;5054140;28;20092;-68
2021/05/30 18:26:44;;;;;;;12.57;7.13;;;15.20;72.20;;;;;;5054250;28;20059;-68
2021/05/30 18:29:10;;;;;;;14.57;7.67;;;15.10;72.30;;;;;;5053554;28;20041;-67
2021/05/30 18:31:35;;;;;;;10.30;7.07;;;15.10;72.60;;;;;;5053670;28;20139;-67
2021/05/30 18:34:01;;;;;;;11.43;7.13;;;15.00;72.70;;;;;;5054135;28;20059;-68
2021/05/30 18:36:30;;;;;;;13.70;7.80;;;15.00;72.90;;;;;;5053328;28;20115;-69
2021/05/30 18:38:57;;;;;;;12.40;7.13;;;15.00;72.90;;;;;;5054182;28;20129;-68
2021/05/30 18:41:23;;;;;;;11.87;8.20;;;14.90;73.20;;;;;;5053573;28;20132;-68
2021/05/30 18:43:49;;;;;;;12.70;7.10;;;14.80;73.40;;;;;;5053361;28;20056;-68
2021/05/30 18:46:16;;;;;;;14.73;8.20;;;14.70;73.70;;;;;;5053680;28;20106;-68
2021/05/30 18:48:42;;;;;;;16.23;8.97;;;14.60;74.10;;;;;;5054251;28;20497;-68
2021/05/30 18:53:47;;;;;;;13.20;9.00;;;14.50;74.90;;;;;;5053644;28;20041;-68
2021/05/30 18:56:13;;;;;;;16.83;9.37;;;14.40;75.30;;;;;;5053577;28;20446;-68
2021/05/30 18:58:42;;;;;;;20.03;9.60;;;14.30;75.50;;;;;;5053340;28;20059;-68
2021/05/30 19:01:08;;;;;;;12.23;9.50;;;14.20;76.00;;;;;;5053680;28;20148;-68
2021/05/30 19:03:34;;;;;;;19.30;10.20;;;14.20;76.20;;;;;;5052748;28;20069;-69
2021/05/30 19:06:01;;;;;;;16.43;9.97;;;14.10;76.70;;;;;;5053799;28;20077;-69
2021/05/30 19:08:27;;;;;;;18.97;9.97;;;14.00;77.10;;;;;;5053356;28;20045;-69
2021/05/30 19:10:53;;;;;;;14.77;9.43;;;13.90;77.20;;;;;;5052754;28;20489;-70
2021/05/30 19:13:18;;;;;;;16.27;10.33;;;13.90;77.20;;;;;;5053241;28;20067;-68
2021/05/30 19:15:45;;;;;;;15.27;10.53;;;13.80;77.40;;;;;;5053293;28;20075;-67
2021/05/30 19:18:11;;;;;;;13.20;9.80;;;13.70;77.60;;;;;;5052757;28;20045;-67
2021/05/30 19:20:37;;;;;;;15.47;9.37;;;13.60;77.80;;;;;;5052913;28;20393;-67
2021/05/30 19:23:04;;;;;;;14.60;9.60;;;13.50;78.10;;;;;;5053341;28;20394;-67
2021/05/30 19:25:29;;;;;;;15.33;9.17;;;13.40;78.20;;;;;;5051793;28;20052;-68
2021/05/30 19:27:55;;;;;;;20.27;12.67;;;13.30;78.50;;;;;;5052987;28;20045;-67
2021/05/30 19:30:22;;;;;;;18.90;13.80;;;13.20;78.60;;;;;;5053062;28;20045;-67
2021/05/30 19:32:48;;;;;;;16.40;11.17;;;13.10;78.90;;;;;;5052295;28;20613;-68
2021/05/30 19:35:15;;;;;;;16.90;11.23;;;13.00;79.30;;;;;;5052678;28;20111;-68
2021/05/30 19:37:41;;;;;;;16.87;10.37;;;13.10;79.70;;;;;;5053077;28;20572;-69
2021/05/30 19:40:09;;;;;;;20.43;13.73;;;13.00;79.80;;;;;;5052010;28;20208;-67
2021/05/30 19:42:38;;;;;;;17.40;11.23;;;12.90;80.20;;;;;;5052645;28;20053;-67
2021/05/30 19:45:06;;;;;;;18.17;12.80;;;12.80;80.40;;;;;;5035141;28;20127;-67
2021/05/30 19:47:32;;;;;;;19.27;11.00;;;12.70;80.80;;;;;;5051974;28;20098;-67
2021/05/30 19:49:58;;;;;;;20.60;11.60;;;12.60;81.10;;;;;;5052749;28;20428;-68
2021/05/30 19:52:24;;;;;;;20.13;11.47;;;12.50;81.30;;;;;;5051861;28;20052;-68
2021/05/30 19:54:50;;;;;;;17.43;11.70;;;12.50;81.60;;;;;;5051150;28;20414;-68
2021/05/30 19:57:16;;;;;;;19.70;12.53;;;12.40;81.70;;;;;;5051535;28;20048;-68
2021/05/30 19:59:42;;;;;;;19.23;13.30;;;12.40;82.10;;;;;;5051256;28;20049;-68
2021/05/30 20:02:08;;;;;;;17.93;12.23;;;12.30;82.50;;;;;;5051884;28;20052;-68
2021/05/30 20:04:36;;;;;;;18.30;13.13;;;12.30;82.80;;;;;;5051342;28;20052;-67
2021/05/30 20:07:06;;;;;;;22.13;13.77;;;12.20;83.10;;;;;;5050756;28;20049;-68
2021/05/30 20:09:33;;;;;;;17.80;13.47;;;12.10;83.20;;;;;;5051549;28;20057;-67
2021/05/30 20:12:00;;;;;;;21.17;14.80;;;12.10;83.20;;;;;;5051827;28;20072;-67
2021/05/30 20:14:26;;;;;;;18.67;12.77;;;12.00;83.60;;;;;;5050744;28;20109;-67
2021/05/30 20:16:53;;;;;;;24.33;14.83;;;12.00;83.70;;;;;;5051713;28;20053;-67
2021/05/30 20:19:18;;;;;;;23.03;13.33;;;11.90;83.90;;;;;;5051300;28;20064;-68
2021/05/30 20:21:44;;;;;;;21.57;14.60;;;11.90;83.90;;;;;;5050516;28;20493;-68
2021/05/30 20:24:11;;;;;;;18.03;14.30;;;11.90;84.10;;;;;;5051237;28;20246;-67
2021/05/30 20:26:45;;;;;;;18.87;13.17;;;11.90;84.60;;;;;;5051320;28;20136;-69
2021/05/30 20:31:44;;;;;;;17.50;13.57;;;11.70;85.00;;;;;;5051042;28;20057;-67
2021/05/30 20:34:10;;;;;;;21.90;15.30;;;11.70;85.20;;;;;;5050757;28;20079;-68
2021/05/30 20:36:35;;;;;;;20.53;13.43;;;11.60;85.40;;;;;;5050010;28;20082;-67
2021/05/30 20:39:03;;;;;;;20.23;14.10;;;11.60;85.70;;;;;;5050902;28;20543;-68
2021/05/30 20:41:28;;;;;;;23.67;16.30;;;11.50;85.80;;;;;;5050923;28;20131;-67
2021/05/30 20:43:55;;;;;;;20.43;15.33;;;11.50;86.20;;;;;;5050590;28;20501;-67
2021/05/30 20:46:21;;;;;;;21.67;15.40;;;11.50;86.30;;;;;;5050883;28;20103;-68
2021/05/30 20:48:47;;;;;;;25.40;21.30;;;11.40;86.40;;;;;;5050788;28;20045;-67
2021/05/30 20:51:13;;;;;;;23.00;18.10;;;11.40;86.70;;;;;;5050620;28;20045;-67
2021/05/30 20:53:39;;;;;;;20.10;16.10;;;11.40;86.90;;;;;;5051025;28;20449;-67
2021/05/30 20:56:05;;;;;;;29.30;15.33;;;11.40;87.00;;;;;;5050534;28;20049;-67
2021/05/30 20:58:30;;;;;;;20.57;16.00;;;11.30;87.30;;;;;;5050853;28;20099;-68
2021/05/30 21:00:56;;;;;;;23.23;15.30;;;11.30;87.50;;;;;;5050693;28;20359;-68
2021/05/30 21:03:22;;;;;;;36.00;17.50;;;11.30;87.50;;;;;;5050158;28;20049;-67
2021/05/30 21:05:48;;;;;;;25.23;16.50;;;11.30;87.60;;;;;;5051210;28;20056;-67
2021/05/30 21:08:14;;;;;;;20.33;15.60;;;11.30;87.90;;;;;;5051122;28;20084;-67
2021/05/30 21:10:39;;;;;;;20.80;15.80;;;11.30;88.10;;;;;;5050695;28;20045;-67
2021/05/30 21:13:05;;;;;;;25.20;15.33;;;11.20;88.20;;;;;;5051430;28;20045;-67
2021/05/30 21:15:31;;;;;;;22.83;15.60;;;11.20;88.40;;;;;;5050685;28;20053;-67
2021/05/30 21:17:57;;;;;;;17.63;15.73;;;11.20;88.60;;;;;;5050464;28;20052;-68
2021/05/30 21:20:22;;;;;;;21.93;16.10;;;11.20;88.50;;;;;;5050982;28;20447;-67
2021/05/30 21:22:49;;;;;;;21.20;15.37;;;11.20;88.70;;;;;;5051236;28;20076;-68
2021/05/30 21:25:14;;;;;;;23.77;14.93;;;11.10;88.80;;;;;;5050588;28;20052;-68
2021/05/30 21:27:41;;;;;;;19.77;14.17;;;11.10;89.10;;;;;;5051421;28;20052;-68
2021/05/30 21:30:07;;;;;;;20.50;14.87;;;11.10;89.20;;;;;;5051344;28;20443;-67
2021/05/30 21:32:34;;;;;;;20.70;15.33;;;11.00;89.30;;;;;;5050162;28;20059;-68
2021/05/30 21:35:00;;;;;;;20.60;14.70;;;11.00;89.40;;;;;;5051289;28;20111;-67
2021/05/30 21:37:25;;;;;;;20.80;13.97;;;11.00;89.60;;;;;;5050738;28;20065;-68
2021/05/30 21:39:53;;;;;;;21.03;14.30;;;10.90;89.70;;;;;;5050367;28;20049;-68
2021/05/30 21:42:22;;;;;;;21.93;14.90;;;10.90;89.70;;;;;;5050791;28;20045;-67
2021/05/30 21:44:48;;;;;;;18.00;13.50;;;10.90;89.70;;;;;;5051085;28;20049;-67
2021/05/30 21:47:13;;;;;;;18.13;13.60;;;10.90;90.00;;;;;;5050227;28;20060;-67
2021/05/30 21:49:39;;;;;;;17.53;13.97;;;10.90;90.00;;;;;;5051063;28;20114;-67
2021/05/30 21:52:06;;;;;;;21.17;14.40;;;10.90;90.00;;;;;;5050880;28;20482;-67
2021/05/30 21:54:31;;;;;;;19.83;13.73;;;10.80;89.90;;;;;;5050836;28;20061;-67
2021/05/30 21:56:57;;;;;;;19.83;14.03;;;10.90;90.10;;;;;;5051068;28;20110;-67
2021/05/30 21:59:23;;;;;;;21.20;13.97;;;10.80;90.00;;;;;;5050046;28;20482;-67
2021/05/30 22:01:48;;;;;;;20.07;14.47;;;10.80;90.10;;;;;;5050932;28;20139;-67
2021/05/30 22:04:16;;;;;;;24.77;15.57;;;10.80;90.10;;;;;;5050525;28;20482;-68
2021/05/30 22:06:42;;;;;;;22.20;14.90;;;10.70;90.20;;;;;;5050468;28;20129;-67